createdAt,value
2022-08-20T00:01:01.537Z,75.23
2022-08-20T00:01:56.270Z,75.13
2022-08-20T00:02:55.346Z,75.33
2022-08-20T00:03:55.514Z,75.43
2022-08-20T00:04:55.711Z,75.43
2022-08-20T00:05:56.815Z,75.23
2022-08-20T00:06:56.040Z,75.43
2022-08-20T00:07:56.316Z,75.43
2022-08-20T00:08:56.455Z,75.53
2022-08-20T00:09:56.533Z,75.43
2022-08-20T00:10:56.703Z,75.33
2022-08-20T00:11:56.964Z,75.43
2022-08-20T00:12:57.065Z,75.53
2022-08-20T00:13:57.194Z,75.43
2022-08-20T00:14:57.443Z,75.43
2022-08-20T00:15:57.552Z,75.53
2022-08-20T00:17:00.037Z,75.33
2022-08-20T00:17:57.922Z,75.33
2022-08-20T00:18:58.074Z,75.43
2022-08-20T00:19:58.244Z,75.43
2022-08-20T00:20:58.415Z,75.33
2022-08-20T00:21:58.709Z,75.33
2022-08-20T00:22:58.775Z,75.33
2022-08-20T00:23:58.943Z,75.33
2022-08-20T00:24:59.117Z,75.33
2022-08-20T00:25:59.285Z,75.23
2022-08-20T00:26:59.476Z,75.13
2022-08-20T00:27:59.678Z,75.23
2022-08-20T00:28:59.815Z,75.13
2022-08-20T00:29:59.975Z,75.13
2022-08-20T00:31:00.210Z,75.23
2022-08-20T00:32:00.346Z,75.23
2022-08-20T00:33:00.523Z,75.13
2022-08-20T00:34:00.766Z,75.13
2022-08-20T00:35:00.854Z,75.23
2022-08-20T00:36:01.027Z,75.03
2022-08-20T00:37:01.320Z,75.03
2022-08-20T00:38:01.622Z,74.93
2022-08-20T00:39:01.544Z,74.93
2022-08-20T00:40:01.769Z,74.84
2022-08-20T00:41:01.914Z,74.93
2022-08-20T00:42:02.086Z,74.93
2022-08-20T00:43:02.288Z,74.84
2022-08-20T00:44:02.488Z,74.73
2022-08-20T00:45:02.586Z,74.73
2022-08-20T00:46:02.758Z,74.84
2022-08-20T00:47:03.027Z,74.93
2022-08-20T00:48:03.109Z,74.93
2022-08-20T00:49:03.288Z,75.03
2022-08-20T00:50:03.457Z,74.93
2022-08-20T00:51:03.628Z,75.03
2022-08-20T00:52:03.797Z,74.93
2022-08-20T00:53:04.002Z,75.23
2022-08-20T00:54:04.127Z,75.13
2022-08-20T00:55:04.299Z,75.43
2022-08-20T00:56:04.535Z,75.43
2022-08-20T00:57:04.656Z,75.13
2022-08-20T00:58:05.116Z,75.23
2022-08-20T00:59:05.060Z,75.23
2022-08-20T01:00:05.178Z,75.23
2022-08-20T01:01:05.341Z,75.23
2022-08-20T01:02:05.614Z,75.23
2022-08-20T01:03:05.692Z,75.13
2022-08-20T01:04:05.860Z,75.03
2022-08-20T01:05:06.102Z,75.23
2022-08-20T01:06:06.228Z,75.13
2022-08-20T01:07:06.388Z,74.84
2022-08-20T01:08:06.549Z,75.23
2022-08-20T01:09:06.739Z,75.27
2022-08-20T01:10:06.899Z,75.23
2022-08-20T01:11:07.059Z,75.03
2022-08-20T01:12:07.285Z,75.13
2022-08-20T01:13:07.400Z,75.13
2022-08-20T01:14:07.562Z,75.13
2022-08-20T01:15:07.787Z,74.93
2022-08-20T01:16:07.897Z,74.93
2022-08-20T01:17:08.102Z,75.03
2022-08-20T01:18:08.339Z,75.03
2022-08-20T01:19:29.168Z,75.03
2022-08-20T01:20:09.639Z,74.84
2022-08-20T01:21:08.820Z,75.13
2022-08-20T01:22:09.032Z,75.13
2022-08-20T01:23:09.160Z,75.03
2022-08-20T01:24:09.331Z,75.13
2022-08-20T01:25:09.548Z,75.23
2022-08-20T01:26:09.668Z,75.13
2022-08-20T01:27:09.841Z,75.13
2022-08-20T01:28:10.088Z,75.13
2022-08-20T01:29:10.210Z,75.23
2022-08-20T01:30:10.361Z,75.23
2022-08-20T01:31:10.591Z,75.13
2022-08-20T01:32:10.722Z,75.03
2022-08-20T01:33:10.892Z,75.33
2022-08-20T01:34:11.052Z,75.33
2022-08-20T01:35:11.217Z,75.33
2022-08-20T01:36:11.372Z,75.23
2022-08-20T01:37:11.562Z,75.03
2022-08-20T01:38:11.794Z,75.13
2022-08-20T01:39:11.893Z,75.23
2022-08-20T01:40:12.117Z,75.23
2022-08-20T01:41:12.334Z,75.13
2022-08-20T01:42:12.420Z,75.13
2022-08-20T01:43:12.592Z,75.13
2022-08-20T01:44:13.430Z,74.93
2022-08-20T01:45:12.959Z,75.13
2022-08-20T01:46:13.123Z,75.23
2022-08-20T01:47:13.313Z,75.03
2022-08-20T01:48:13.453Z,74.93
2022-08-20T01:49:15.701Z,75.03
2022-08-20T01:50:14.783Z,75.13
2022-08-20T01:51:14.050Z,75.03
2022-08-20T01:52:14.124Z,75.03
2022-08-20T01:53:14.294Z,74.84
2022-08-20T01:54:14.535Z,75.03
2022-08-20T01:55:14.666Z,74.84
2022-08-20T01:56:14.834Z,75.13
2022-08-20T01:57:15.025Z,74.93
2022-08-20T01:58:15.218Z,74.93
2022-08-20T01:59:15.385Z,74.80
2022-08-20T02:00:19.575Z,74.63
2022-08-20T02:01:15.841Z,74.63
2022-08-20T02:02:15.916Z,74.73
2022-08-20T02:03:16.092Z,74.63
2022-08-20T02:04:16.310Z,74.63
2022-08-20T02:05:16.433Z,74.73
2022-08-20T02:06:16.618Z,74.73
2022-08-20T02:07:16.830Z,74.84
2022-08-20T02:08:16.968Z,74.93
2022-08-20T02:09:17.137Z,74.73
2022-08-20T02:10:17.373Z,74.73
2022-08-20T02:11:17.495Z,74.63
2022-08-20T02:12:17.625Z,74.63
2022-08-20T02:13:17.796Z,74.63
2022-08-20T02:14:17.982Z,74.73
2022-08-20T02:15:18.146Z,74.73
2022-08-20T02:16:19.316Z,74.73
2022-08-20T02:17:18.516Z,74.73
2022-08-20T02:18:18.646Z,74.63
2022-08-20T02:19:18.817Z,74.54
2022-08-20T02:20:19.068Z,74.54
2022-08-20T02:21:19.157Z,74.54
2022-08-20T02:22:19.327Z,74.73
2022-08-20T02:23:19.580Z,74.63
2022-08-20T02:24:19.659Z,74.54
2022-08-20T02:25:19.822Z,74.54
2022-08-20T02:26:20.089Z,74.63
2022-08-20T02:27:20.165Z,74.73
2022-08-20T02:28:20.326Z,74.73
2022-08-20T02:29:20.543Z,74.63
2022-08-20T02:30:27.617Z,74.63
2022-08-20T02:31:21.894Z,74.63
2022-08-20T02:32:25.009Z,74.63
2022-08-20T02:33:24.255Z,74.93
2022-08-20T02:34:22.682Z,74.73
2022-08-20T02:35:21.551Z,74.54
2022-08-20T02:36:21.832Z,74.73
2022-08-20T02:37:21.918Z,74.63
2022-08-20T02:38:22.071Z,74.63
2022-08-20T02:39:22.328Z,74.54
2022-08-20T02:40:30.616Z,74.54
2022-08-20T02:41:23.589Z,74.73
2022-08-20T02:42:22.821Z,74.63
2022-08-20T02:43:22.927Z,74.63
2022-08-20T02:44:23.092Z,74.73
2022-08-20T02:45:23.358Z,74.63
2022-08-20T02:46:23.483Z,74.43
2022-08-20T02:47:23.620Z,74.63
2022-08-20T02:48:23.798Z,74.63
2022-08-20T02:49:24.028Z,74.54
2022-08-20T02:50:24.140Z,74.63
2022-08-20T02:51:30.430Z,74.63
2022-08-20T02:52:25.577Z,74.73
2022-08-20T02:53:24.641Z,74.63
2022-08-20T02:54:24.812Z,74.63
2022-08-20T02:55:27.723Z,74.63
2022-08-20T02:56:25.164Z,74.73
2022-08-20T02:57:25.314Z,74.63
2022-08-20T02:58:25.566Z,74.54
2022-08-20T02:59:25.690Z,74.54
2022-08-20T03:00:25.862Z,74.63
2022-08-20T03:01:26.129Z,74.54
2022-08-20T03:02:26.236Z,74.63
2022-08-20T03:03:26.380Z,74.50
2022-08-20T03:04:26.563Z,74.40
2022-08-20T03:05:26.822Z,74.50
2022-08-20T03:06:26.915Z,74.40
2022-08-20T03:07:27.095Z,74.40
2022-08-20T03:08:27.364Z,74.30
2022-08-20T03:09:27.462Z,74.30
2022-08-20T03:10:27.693Z,74.63
2022-08-20T03:11:27.893Z,74.54
2022-08-20T03:12:27.997Z,74.54
2022-08-20T03:13:28.133Z,74.63
2022-08-20T03:14:28.401Z,74.63
2022-08-20T03:15:28.542Z,74.63
2022-08-20T03:16:28.690Z,74.63
2022-08-20T03:17:28.854Z,74.84
2022-08-20T03:18:29.101Z,74.84
2022-08-20T03:19:29.204Z,74.73
2022-08-20T03:20:29.404Z,74.73
2022-08-20T03:21:29.627Z,74.73
2022-08-20T03:22:29.733Z,74.84
2022-08-20T03:23:29.915Z,74.93
2022-08-20T03:24:30.187Z,74.84
2022-08-20T03:25:30.296Z,74.93
2022-08-20T03:26:30.445Z,74.93
2022-08-20T03:27:36.190Z,74.84
2022-08-20T03:28:31.819Z,74.93
2022-08-20T03:29:30.972Z,75.03
2022-08-20T03:30:31.252Z,74.93
2022-08-20T03:31:31.334Z,75.13
2022-08-20T03:32:31.485Z,75.13
2022-08-20T03:33:31.675Z,75.03
2022-08-20T03:34:31.891Z,75.03
2022-08-20T03:35:31.998Z,75.03
2022-08-20T03:36:32.149Z,75.23
2022-08-20T03:37:32.409Z,75.23
2022-08-20T03:38:33.597Z,75.23
2022-08-20T03:39:32.727Z,75.23
2022-08-20T03:40:32.991Z,75.33
2022-08-20T03:41:33.048Z,75.13
2022-08-20T03:42:33.237Z,75.13
2022-08-20T03:43:33.442Z,75.03
2022-08-20T03:44:33.603Z,75.23
2022-08-20T03:45:33.765Z,75.33
2022-08-20T03:46:33.947Z,75.23
2022-08-20T03:47:34.143Z,75.23
2022-08-20T03:48:34.297Z,75.27
2022-08-20T03:49:34.456Z,75.13
2022-08-20T03:50:34.669Z,75.13
2022-08-20T03:51:56.373Z,75.13
2022-08-20T03:52:35.985Z,75.13
2022-08-20T03:53:35.249Z,75.13
2022-08-20T03:54:35.339Z,75.13
2022-08-20T03:55:35.508Z,75.33
2022-08-20T03:56:35.769Z,75.03
2022-08-20T03:57:35.863Z,75.33
2022-08-20T03:58:36.474Z,75.23
2022-08-20T03:59:36.255Z,75.03
2022-08-20T04:00:36.453Z,75.13
2022-08-20T04:01:45.117Z,75.37
2022-08-20T04:02:37.730Z,75.16
2022-08-20T04:03:36.965Z,75.07
2022-08-20T04:04:37.080Z,75.16
2022-08-20T04:05:37.259Z,75.16
2022-08-20T04:06:37.512Z,75.13
2022-08-20T04:07:37.619Z,75.13
2022-08-20T04:08:37.830Z,75.03
2022-08-20T04:09:38.082Z,75.23
2022-08-20T04:10:38.144Z,75.13
2022-08-20T04:11:38.280Z,75.13
2022-08-20T04:12:38.550Z,75.13
2022-08-20T04:13:42.650Z,75.13
2022-08-20T04:14:38.818Z,75.03
2022-08-20T04:15:39.011Z,75.13
2022-08-20T04:16:39.216Z,74.93
2022-08-20T04:17:39.342Z,75.03
2022-08-20T04:18:39.511Z,74.93
2022-08-20T04:19:39.671Z,74.93
2022-08-20T04:20:39.850Z,74.73
2022-08-20T04:21:40.018Z,74.93
2022-08-20T04:22:40.189Z,74.84
2022-08-20T04:23:40.351Z,74.84
2022-08-20T04:24:40.523Z,74.84
2022-08-20T04:25:42.589Z,74.84
2022-08-20T04:26:40.863Z,74.93
2022-08-20T04:27:41.078Z,74.73
2022-08-20T04:28:41.243Z,74.73
2022-08-20T04:29:41.361Z,74.54
2022-08-20T04:30:47.458Z,74.63
2022-08-20T04:31:42.776Z,74.63
2022-08-20T04:32:41.902Z,74.63
2022-08-20T04:33:42.063Z,74.54
2022-08-20T04:34:42.303Z,74.43
2022-08-20T04:35:42.412Z,74.54
2022-08-20T04:36:42.582Z,74.63
2022-08-20T04:37:42.839Z,74.33
2022-08-20T04:38:47.847Z,74.43
2022-08-20T04:39:44.120Z,74.33
2022-08-20T04:40:43.372Z,74.54
2022-08-20T04:41:43.450Z,74.54
2022-08-20T04:42:43.627Z,74.73
2022-08-20T04:43:43.792Z,74.84
2022-08-20T04:44:44.008Z,74.73
2022-08-20T04:45:44.133Z,74.84
2022-08-20T04:46:44.304Z,74.84
2022-08-20T04:47:44.543Z,74.73
2022-08-20T04:48:48.788Z,74.84
2022-08-20T04:49:45.824Z,74.63
2022-08-20T04:50:45.124Z,74.73
2022-08-20T04:51:45.174Z,74.84
2022-08-20T04:52:45.343Z,74.93
2022-08-20T04:53:51.742Z,74.43
2022-08-20T04:54:46.675Z,74.54
2022-08-20T04:55:45.968Z,74.43
2022-08-20T04:56:46.030Z,74.63
2022-08-20T04:57:46.196Z,74.93
2022-08-20T04:58:46.411Z,74.73
2022-08-20T04:59:46.556Z,74.63
2022-08-20T05:00:46.754Z,74.24
2022-08-20T05:01:46.895Z,74.33
2022-08-20T05:02:47.076Z,74.13
2022-08-20T05:03:47.276Z,74.33
2022-08-20T05:04:47.479Z,74.24
2022-08-20T05:05:47.615Z,74.30
2022-08-20T05:06:47.777Z,74.30
2022-08-20T05:07:48.019Z,74.20
2022-08-20T05:08:48.137Z,74.20
2022-08-20T05:09:48.316Z,74.00
2022-08-20T05:10:48.627Z,74.00
2022-08-20T05:11:48.676Z,74.00
2022-08-20T05:12:55.650Z,74.00
2022-08-20T05:13:50.120Z,74.10
2022-08-20T05:14:49.218Z,74.10
2022-08-20T05:15:49.418Z,73.80
2022-08-20T05:16:49.669Z,73.70
2022-08-20T05:17:49.834Z,73.90
2022-08-20T05:18:52.262Z,73.90
2022-08-20T05:19:50.175Z,73.90
2022-08-20T05:20:50.349Z,73.80
2022-08-20T05:21:50.471Z,74.00
2022-08-20T05:22:50.657Z,73.90
2022-08-20T05:23:50.913Z,73.41
2022-08-20T05:24:51.007Z,73.80
2022-08-20T05:25:51.195Z,73.60
2022-08-20T05:26:51.358Z,73.80
2022-08-20T05:27:51.539Z,73.41
2022-08-20T05:28:57.884Z,73.41
2022-08-20T05:29:52.880Z,73.21
2022-08-20T05:30:52.090Z,73.50
2022-08-20T05:31:52.328Z,73.70
2022-08-20T05:32:52.429Z,73.50
2022-08-20T05:33:52.599Z,73.60
2022-08-20T05:34:52.884Z,73.50
2022-08-20T05:35:52.996Z,73.60
2022-08-20T05:36:54.071Z,73.27
2022-08-20T05:37:53.366Z,73.00
2022-08-20T05:38:53.521Z,73.11
2022-08-20T05:39:53.738Z,73.30
2022-08-20T05:40:53.910Z,73.27
2022-08-20T05:41:54.040Z,72.97
2022-08-20T05:42:54.240Z,72.97
2022-08-20T05:43:54.444Z,73.07
2022-08-20T05:44:54.591Z,73.00
2022-08-20T05:45:56.751Z,73.17
2022-08-20T05:46:55.020Z,72.97
2022-08-20T05:47:56.570Z,73.41
2022-08-20T05:48:55.331Z,73.11
2022-08-20T05:49:55.562Z,72.81
2022-08-20T05:50:55.671Z,73.11
2022-08-20T05:51:55.831Z,73.21
2022-08-20T05:52:56.091Z,73.21
2022-08-20T05:53:56.501Z,72.61
2022-08-20T05:54:56.329Z,72.91
2022-08-20T05:55:56.607Z,73.00
2022-08-20T05:56:56.723Z,73.00
2022-08-20T05:57:56.916Z,72.97
2022-08-20T05:58:57.042Z,72.77
2022-08-20T05:59:57.268Z,72.97
2022-08-20T06:00:57.416Z,72.97
2022-08-20T06:01:57.564Z,72.87
2022-08-20T06:02:57.814Z,73.17
2022-08-20T06:03:57.892Z,72.47
2022-08-20T06:04:58.079Z,72.28
2022-08-20T06:05:58.378Z,72.47
2022-08-20T06:06:58.415Z,72.67
2022-08-20T06:08:07.636Z,72.58
2022-08-20T06:08:59.764Z,72.28
2022-08-20T06:09:58.945Z,72.28
2022-08-20T06:10:59.235Z,72.28
2022-08-20T06:11:59.504Z,72.38
2022-08-20T06:12:59.454Z,72.47
2022-08-20T06:13:59.693Z,72.47
2022-08-20T06:14:59.845Z,72.77
2022-08-20T06:16:00.012Z,72.87
2022-08-20T06:17:00.200Z,72.77
2022-08-20T06:18:00.493Z,72.58
2022-08-20T06:19:02.766Z,72.47
2022-08-20T06:20:00.684Z,72.38
2022-08-20T06:21:00.957Z,72.47
2022-08-20T06:22:01.024Z,72.58
2022-08-20T06:23:01.194Z,72.58
2022-08-20T06:24:01.546Z,72.47
2022-08-20T06:25:01.536Z,72.47
2022-08-20T06:26:01.717Z,72.47
2022-08-20T06:27:01.987Z,72.58
2022-08-20T06:28:02.068Z,72.38
2022-08-20T06:29:02.245Z,72.58
2022-08-20T06:30:02.492Z,72.47
2022-08-20T06:31:02.656Z,72.58
2022-08-20T06:32:02.831Z,72.87
2022-08-20T06:33:02.975Z,72.77
2022-08-20T06:34:03.181Z,72.77
2022-08-20T06:35:03.628Z,72.77
2022-08-20T06:36:03.500Z,72.28
2022-08-20T06:37:03.694Z,72.34
2022-08-20T06:38:03.806Z,72.54
2022-08-20T06:39:03.986Z,72.44
2022-08-20T06:40:04.311Z,72.44
2022-08-20T06:41:04.327Z,72.44
2022-08-20T06:42:04.493Z,72.44
2022-08-20T06:43:04.788Z,72.04
2022-08-20T06:44:04.858Z,72.04
2022-08-20T06:45:05.078Z,72.34
2022-08-20T06:46:05.327Z,72.24
2022-08-20T06:47:05.364Z,72.04
2022-08-20T06:48:05.519Z,71.94
2022-08-20T06:49:05.717Z,71.75
2022-08-20T06:50:05.919Z,71.84
2022-08-20T06:51:06.116Z,71.84
2022-08-20T06:52:06.249Z,71.55
2022-08-20T06:53:06.685Z,71.64
2022-08-20T06:54:06.601Z,71.51
2022-08-20T06:55:06.769Z,71.64
2022-08-20T06:56:07.048Z,71.75
2022-08-20T06:57:07.119Z,71.41
2022-08-20T06:58:07.288Z,71.71
2022-08-20T06:59:08.552Z,71.61
2022-08-20T07:00:07.642Z,71.41
2022-08-20T07:01:09.732Z,71.61
2022-08-20T07:02:08.054Z,71.31
2022-08-20T07:03:08.218Z,71.41
2022-08-20T07:04:08.337Z,71.31
2022-08-20T07:05:08.506Z,71.01
2022-08-20T07:06:08.746Z,71.22
2022-08-20T07:07:08.849Z,70.81
2022-08-20T07:08:09.029Z,71.22
2022-08-20T07:09:09.199Z,71.22
2022-08-20T07:10:09.377Z,70.92
2022-08-20T07:11:09.560Z,70.92
2022-08-20T07:12:09.786Z,70.81
2022-08-20T07:13:09.906Z,70.81
2022-08-20T07:14:10.103Z,70.39
2022-08-20T07:15:10.280Z,70.29
2022-08-20T07:16:10.481Z,70.48
2022-08-20T07:17:12.251Z,70.68
2022-08-20T07:18:10.801Z,69.79
2022-08-20T07:19:11.026Z,69.79
2022-08-20T07:20:11.151Z,69.99
2022-08-20T07:21:11.366Z,70.18
2022-08-20T07:22:11.481Z,69.99
2022-08-20T07:23:11.653Z,70.09
2022-08-20T07:24:11.899Z,69.89
2022-08-20T07:25:12.023Z,69.89
2022-08-20T07:26:12.193Z,69.69
2022-08-20T07:27:12.396Z,69.39
2022-08-20T07:28:12.523Z,69.20
2022-08-20T07:29:12.693Z,69.69
2022-08-20T07:30:15.195Z,69.39
2022-08-20T07:31:13.588Z,69.65
2022-08-20T07:32:13.241Z,69.36
2022-08-20T07:33:13.452Z,69.16
2022-08-20T07:34:13.615Z,68.86
2022-08-20T07:35:13.786Z,68.96
2022-08-20T07:36:13.970Z,68.96
2022-08-20T07:37:14.190Z,69.16
2022-08-20T07:38:14.305Z,69.26
2022-08-20T07:39:14.473Z,68.86
2022-08-20T07:40:14.792Z,68.96
2022-08-20T07:41:14.870Z,68.76
2022-08-20T07:42:14.994Z,68.76
2022-08-20T07:43:15.232Z,68.57
2022-08-20T07:44:15.357Z,68.57
2022-08-20T07:45:15.543Z,68.76
2022-08-20T07:46:15.781Z,68.07
2022-08-20T07:47:15.913Z,68.66
2022-08-20T07:48:31.254Z,68.24
2022-08-20T07:49:17.266Z,67.94
2022-08-20T07:50:16.520Z,67.94
2022-08-20T07:51:16.615Z,67.94
2022-08-20T07:52:16.772Z,68.46
2022-08-20T07:53:17.013Z,68.53
2022-08-20T07:54:17.135Z,68.27
2022-08-20T07:55:17.343Z,68.66
2022-08-20T07:56:17.542Z,68.33
2022-08-20T07:57:17.627Z,68.33
2022-08-20T07:58:17.796Z,68.04
2022-08-20T07:59:18.045Z,67.94
2022-08-20T08:00:18.202Z,68.24
2022-08-20T08:01:18.358Z,68.24
2022-08-20T08:02:18.547Z,68.01
2022-08-20T08:03:18.710Z,68.24
2022-08-20T08:04:18.857Z,68.04
2022-08-20T08:05:19.027Z,68.40
2022-08-20T08:06:28.923Z,68.01
2022-08-20T08:07:20.357Z,67.80
2022-08-20T08:08:19.591Z,67.50
2022-08-20T08:09:19.784Z,67.01
2022-08-20T08:10:19.897Z,66.98
2022-08-20T08:11:20.076Z,66.88
2022-08-20T08:12:20.327Z,66.78
2022-08-20T08:13:20.410Z,67.18
2022-08-20T08:14:20.578Z,67.08
2022-08-20T08:15:20.874Z,66.88
2022-08-20T08:16:20.927Z,66.25
2022-08-20T08:17:21.099Z,66.06
2022-08-20T08:18:21.289Z,65.95
2022-08-20T08:19:21.511Z,66.06
2022-08-20T08:20:21.637Z,65.17
2022-08-20T08:21:21.800Z,65.36
2022-08-20T08:22:22.048Z,65.66
2022-08-20T08:23:24.850Z,65.26
2022-08-20T08:24:27.790Z,65.36
2022-08-20T08:25:23.605Z,65.26
2022-08-20T08:26:22.692Z,65.26
2022-08-20T08:27:22.860Z,64.97
2022-08-20T08:28:23.140Z,64.67
2022-08-20T08:29:23.216Z,64.77
2022-08-20T08:30:23.400Z,64.67
2022-08-20T08:31:23.612Z,64.77
2022-08-20T08:32:23.800Z,64.47
2022-08-20T08:33:23.931Z,64.17
2022-08-20T08:34:24.121Z,64.77
2022-08-20T08:35:24.391Z,64.37
2022-08-20T08:36:24.463Z,63.75
2022-08-20T08:37:26.952Z,64.44
2022-08-20T08:38:25.881Z,63.85
2022-08-20T08:39:24.942Z,62.96
2022-08-20T08:40:26.166Z,63.95
2022-08-20T08:41:25.372Z,63.85
2022-08-20T08:42:25.496Z,63.65
2022-08-20T08:43:25.632Z,63.75
2022-08-20T08:44:26.886Z,63.45
2022-08-20T08:45:26.031Z,63.75
2022-08-20T08:46:26.144Z,63.95
2022-08-20T08:47:26.337Z,63.75
2022-08-20T08:48:26.535Z,64.04
2022-08-20T08:49:37.492Z,64.84
2022-08-20T08:50:49.934Z,64.24
2022-08-20T08:51:28.063Z,64.14
2022-08-20T08:52:27.184Z,64.24
2022-08-20T08:53:27.352Z,64.44
2022-08-20T08:54:27.588Z,63.15
2022-08-20T08:55:27.704Z,63.02
2022-08-20T08:56:27.858Z,63.22
2022-08-20T08:57:28.106Z,62.53
2022-08-20T08:58:28.196Z,62.93
2022-08-20T08:59:28.354Z,62.73
2022-08-20T09:00:29.536Z,62.93
2022-08-20T09:01:54.368Z,62.82
2022-08-20T09:02:29.953Z,62.93
2022-08-20T09:03:29.150Z,62.50
2022-08-20T09:04:29.263Z,62.01
2022-08-20T09:05:29.425Z,61.41
2022-08-20T09:06:29.667Z,61.41
2022-08-20T09:07:29.797Z,61.71
2022-08-20T09:08:29.926Z,61.21
2022-08-20T09:09:30.096Z,61.31
2022-08-20T09:10:30.342Z,61.31
2022-08-20T09:11:30.436Z,60.92
2022-08-20T09:12:30.626Z,61.08
2022-08-20T09:13:30.885Z,60.79
2022-08-20T09:14:30.997Z,60.49
2022-08-20T09:15:31.187Z,60.17
2022-08-20T09:16:45.643Z,59.67
2022-08-20T09:17:32.521Z,59.97
2022-08-20T09:18:31.688Z,59.58
2022-08-20T09:19:31.948Z,59.67
2022-08-20T09:20:32.056Z,60.27
2022-08-20T09:21:32.208Z,59.77
2022-08-20T09:22:32.389Z,60.66
2022-08-20T09:23:32.550Z,58.78
2022-08-20T09:24:32.738Z,59.70
2022-08-20T09:25:33.013Z,59.87
2022-08-20T09:26:34.567Z,59.18
2022-08-20T09:27:33.270Z,59.58
2022-08-20T09:28:35.166Z,58.88
2022-08-20T09:29:33.640Z,59.38
2022-08-20T09:30:33.838Z,59.58
2022-08-20T09:31:34.068Z,59.38
2022-08-20T09:32:34.163Z,59.58
2022-08-20T09:33:34.340Z,60.17
2022-08-20T09:34:34.621Z,59.67
2022-08-20T09:35:34.748Z,59.28
2022-08-20T09:36:34.871Z,59.97
2022-08-20T09:37:37.665Z,60.17
2022-08-20T09:38:35.273Z,59.67
2022-08-20T09:39:35.455Z,59.18
2022-08-20T09:40:35.571Z,59.58
2022-08-20T09:41:35.790Z,59.67
2022-08-20T09:42:40.389Z,59.77
2022-08-20T09:43:37.041Z,59.47
2022-08-20T09:44:36.313Z,58.88
2022-08-20T09:45:36.412Z,59.25
2022-08-20T09:46:36.600Z,58.78
2022-08-20T09:47:36.774Z,58.00
2022-08-20T09:48:36.972Z,58.49
2022-08-20T09:49:37.152Z,58.09
2022-08-20T09:50:37.379Z,58.19
2022-08-20T09:51:38.419Z,57.89
2022-08-20T09:52:40.691Z,57.89
2022-08-20T09:53:37.844Z,57.97
2022-08-20T09:54:38.105Z,57.67
2022-08-20T09:55:38.213Z,58.06
2022-08-20T09:56:38.363Z,57.37
2022-08-20T09:57:38.625Z,57.28
2022-08-20T09:58:38.726Z,57.70
2022-08-20T09:59:38.903Z,57.79
2022-08-20T10:00:39.205Z,58.29
2022-08-20T10:01:39.312Z,57.89
2022-08-20T10:02:39.446Z,58.72
2022-08-20T10:03:41.773Z,58.12
2022-08-20T10:04:39.845Z,58.22
2022-08-20T10:05:39.994Z,58.81
2022-08-20T10:06:40.154Z,59.41
2022-08-20T10:07:40.393Z,58.81
2022-08-20T10:08:40.517Z,59.60
2022-08-20T10:09:40.695Z,59.70
2022-08-20T10:10:40.941Z,59.01
2022-08-20T10:11:41.070Z,59.41
2022-08-20T10:12:41.317Z,59.41
2022-08-20T10:13:41.422Z,59.20
2022-08-20T10:14:41.599Z,59.11
2022-08-20T10:15:41.967Z,59.31
2022-08-20T10:16:41.947Z,59.01
2022-08-20T10:17:42.106Z,58.51
2022-08-20T10:18:42.365Z,58.02
2022-08-20T10:19:42.497Z,58.51
2022-08-20T10:20:42.656Z,58.61
2022-08-20T10:21:42.851Z,58.91
2022-08-20T10:22:43.026Z,59.41
2022-08-20T10:23:43.158Z,58.22
2022-08-20T10:24:43.307Z,58.51
2022-08-20T10:25:43.585Z,59.11
2022-08-20T10:26:43.667Z,58.51
2022-08-20T10:27:43.894Z,58.42
2022-08-20T10:28:44.026Z,58.12
2022-08-20T10:29:46.982Z,58.42
2022-08-20T10:30:44.460Z,57.79
2022-08-20T10:31:44.508Z,57.82
2022-08-20T10:32:44.688Z,57.13
2022-08-20T10:33:44.959Z,56.84
2022-08-20T10:34:45.048Z,57.73
2022-08-20T10:35:45.238Z,57.03
2022-08-20T10:36:45.477Z,57.53
2022-08-20T10:37:45.610Z,57.03
2022-08-20T10:38:45.749Z,57.43
2022-08-20T10:39:46.051Z,57.33
2022-08-20T10:40:52.244Z,56.54
2022-08-20T10:41:47.250Z,57.23
2022-08-20T10:42:46.421Z,57.53
2022-08-20T10:43:46.659Z,57.53
2022-08-20T10:44:46.772Z,57.43
2022-08-20T10:45:46.940Z,56.84
2022-08-20T10:46:47.195Z,57.23
2022-08-20T10:47:47.281Z,57.60
2022-08-20T10:48:47.480Z,57.01
2022-08-20T10:49:47.642Z,57.20
2022-08-20T10:50:47.818Z,56.02
2022-08-20T10:51:47.972Z,55.92
2022-08-20T10:52:48.141Z,55.82
2022-08-20T10:53:48.372Z,55.82
2022-08-20T10:54:48.514Z,54.83
2022-08-20T10:55:48.662Z,55.33
2022-08-20T10:56:48.885Z,55.13
2022-08-20T10:57:49.119Z,55.10
2022-08-20T10:58:49.201Z,55.20
2022-08-20T10:59:49.405Z,55.40
2022-08-20T11:00:49.573Z,54.90
2022-08-20T11:01:49.743Z,53.92
2022-08-20T11:02:49.873Z,54.21
2022-08-20T11:03:50.019Z,54.31
2022-08-20T11:04:50.227Z,53.62
2022-08-20T11:05:50.367Z,53.62
2022-08-20T11:06:50.568Z,53.62
2022-08-20T11:07:56.259Z,53.12
2022-08-20T11:08:51.874Z,52.93
2022-08-20T11:09:51.046Z,53.33
2022-08-20T11:10:51.276Z,52.53
2022-08-20T11:11:51.366Z,53.15
2022-08-20T11:12:51.553Z,53.05
2022-08-20T11:13:51.816Z,53.64
2022-08-20T11:14:51.934Z,53.35
2022-08-20T11:15:52.066Z,53.55
2022-08-20T11:16:52.347Z,52.86
2022-08-20T11:17:52.480Z,52.26
2022-08-20T11:18:52.599Z,52.76
2022-08-20T11:19:52.904Z,52.88
2022-08-20T11:20:52.974Z,52.78
2022-08-20T11:21:53.106Z,53.38
2022-08-20T11:22:53.312Z,52.78
2022-08-20T11:23:53.461Z,52.19
2022-08-20T11:24:53.678Z,52.48
2022-08-20T11:25:53.809Z,52.19
2022-08-20T11:26:54.090Z,51.59
2022-08-20T11:27:54.195Z,51.82
2022-08-20T11:28:54.357Z,51.72
2022-08-20T11:29:54.566Z,52.61
2022-08-20T11:30:54.782Z,52.71
2022-08-20T11:31:54.920Z,52.81
2022-08-20T11:32:55.086Z,52.71
2022-08-20T11:33:55.255Z,52.73
2022-08-20T11:34:55.456Z,52.91
2022-08-20T11:35:55.626Z,53.30
2022-08-20T11:36:55.800Z,53.80
2022-08-20T11:37:56.210Z,53.30
2022-08-20T11:38:56.159Z,54.19
2022-08-20T11:39:56.397Z,53.99
2022-08-20T11:40:56.615Z,53.80
2022-08-20T11:41:56.700Z,54.10
2022-08-20T11:44:20.297Z,54.49
2022-08-20T11:44:58.250Z,54.88
2022-08-20T11:45:57.409Z,54.79
2022-08-20T11:46:57.600Z,53.70
2022-08-20T11:47:57.956Z,53.89
2022-08-20T11:48:57.931Z,53.99
2022-08-20T11:49:58.163Z,54.10
2022-08-20T11:50:58.290Z,54.56
2022-08-20T11:51:58.457Z,54.76
2022-08-20T11:52:58.626Z,55.05
2022-08-20T11:53:58.819Z,54.06
2022-08-20T11:54:58.991Z,54.17
2022-08-20T11:55:59.190Z,53.97
2022-08-20T11:56:59.389Z,54.17
2022-08-20T11:58:00.490Z,54.46
2022-08-20T11:58:59.679Z,54.04
2022-08-20T11:59:59.950Z,54.83
2022-08-20T12:01:00.064Z,54.63
2022-08-20T12:02:02.697Z,54.53
2022-08-20T12:03:00.708Z,54.51
2022-08-20T12:04:00.608Z,54.31
2022-08-20T12:05:00.742Z,54.11
2022-08-20T12:06:01.041Z,54.02
2022-08-20T12:07:01.113Z,54.21
2022-08-20T12:08:01.264Z,54.90
2022-08-20T12:09:01.475Z,54.61
2022-08-20T12:10:01.657Z,55.49
2022-08-20T12:11:01.805Z,55.40
2022-08-20T12:12:01.982Z,55.00
2022-08-20T12:13:02.558Z,54.21
2022-08-20T12:14:02.341Z,54.61
2022-08-20T12:15:02.559Z,54.41
2022-08-20T12:16:02.794Z,54.61
2022-08-20T12:17:02.908Z,55.10
2022-08-20T12:18:03.086Z,54.73
2022-08-20T12:19:03.339Z,54.14
2022-08-20T12:20:03.465Z,54.93
2022-08-20T12:21:03.602Z,55.13
2022-08-20T12:22:21.257Z,54.24
2022-08-20T12:23:04.981Z,54.83
2022-08-20T12:24:04.085Z,54.24
2022-08-20T12:25:04.265Z,54.44
2022-08-20T12:26:04.557Z,54.63
2022-08-20T12:27:04.650Z,54.56
2022-08-20T12:28:04.824Z,54.86
2022-08-20T12:29:05.084Z,54.66
2022-08-20T12:30:05.166Z,54.86
2022-08-20T12:31:05.356Z,55.35
2022-08-20T12:32:05.606Z,55.05
2022-08-20T12:33:05.704Z,55.26
2022-08-20T12:34:05.877Z,54.46
2022-08-20T12:35:06.130Z,54.17
2022-08-20T12:36:06.285Z,54.46
2022-08-20T12:37:06.402Z,54.96
2022-08-20T12:38:06.599Z,55.45
2022-08-20T12:39:06.768Z,54.96
2022-08-20T12:40:07.070Z,54.46
2022-08-20T12:41:07.156Z,54.46
2022-08-20T12:42:07.382Z,54.86
2022-08-20T12:43:07.470Z,54.76
2022-08-20T12:44:07.646Z,54.66
2022-08-20T12:45:08.891Z,55.05
2022-08-20T12:46:08.001Z,54.86
2022-08-20T12:47:08.128Z,54.79
2022-08-20T12:48:08.385Z,55.28
2022-08-20T12:49:08.498Z,55.28
2022-08-20T12:50:08.644Z,55.35
2022-08-20T12:51:08.882Z,55.18
2022-08-20T12:52:09.043Z,55.58
2022-08-20T12:53:09.160Z,56.34
2022-08-20T12:54:09.340Z,54.86
2022-08-20T12:55:09.588Z,55.47
2022-08-20T12:56:09.729Z,56.67